createdAt,value
2022-11-08T00:02:27.899Z,61.53
2022-11-08T00:04:57.222Z,61.46
2022-11-08T00:07:42.387Z,61.34
2022-11-08T00:10:28.469Z,61.43
2022-11-08T00:13:13.721Z,61.06
2022-11-08T00:15:41.587Z,61.25
2022-11-08T00:18:09.464Z,61.17
2022-11-08T00:20:38.737Z,60.85
2022-11-08T00:23:06.603Z,60.41
2022-11-08T00:25:34.528Z,60.76
2022-11-08T00:28:02.382Z,60.76
2022-11-08T00:30:31.062Z,60.74
2022-11-08T00:32:58.922Z,60.49
2022-11-08T00:35:26.820Z,60.46
2022-11-08T00:37:56.073Z,60.63
2022-11-08T00:40:23.938Z,60.48
2022-11-08T00:42:51.847Z,60.63
2022-11-08T00:45:20.181Z,60.60
2022-11-08T00:47:48.379Z,60.38
2022-11-08T00:50:16.408Z,60.76
2022-11-08T00:52:44.389Z,60.69
2022-11-08T00:55:13.677Z,60.82
2022-11-08T00:57:58.333Z,60.80
2022-11-08T01:00:27.299Z,60.92
2022-11-08T01:03:15.292Z,60.71
2022-11-08T01:05:43.155Z,61.10
2022-11-08T01:08:11.380Z,61.23
2022-11-08T01:10:41.938Z,61.00
2022-11-08T01:13:09.862Z,61.15
2022-11-08T01:15:38.044Z,61.50
2022-11-08T01:18:06.080Z,61.50
2022-11-08T01:20:34.020Z,61.36
2022-11-08T01:23:01.903Z,61.49
2022-11-08T01:25:29.779Z,61.39
2022-11-08T01:27:59.029Z,61.72
2022-11-08T01:30:26.904Z,61.75
2022-11-08T01:32:54.839Z,61.50
2022-11-08T01:35:22.715Z,61.85
2022-11-08T01:37:51.357Z,61.67
2022-11-08T01:40:19.428Z,61.66
2022-11-08T01:42:47.279Z,61.73
2022-11-08T01:45:16.654Z,61.57
2022-11-08T01:47:44.656Z,61.80
2022-11-08T01:50:13.250Z,62.19
2022-11-08T01:52:41.947Z,61.95
2022-11-08T01:55:12.913Z,61.89
2022-11-08T01:57:44.667Z,62.08
2022-11-08T02:00:13.579Z,62.35
2022-11-08T02:02:43.982Z,62.39
2022-11-08T02:05:25.090Z,62.45
2022-11-08T02:07:58.840Z,62.21
2022-11-08T02:10:29.665Z,62.56
2022-11-08T02:12:57.533Z,62.45
2022-11-08T02:15:25.768Z,62.36
2022-11-08T02:17:55.116Z,62.48
2022-11-08T02:20:23.010Z,62.21
2022-11-08T02:22:53.719Z,62.43
2022-11-08T02:25:22.960Z,62.07
2022-11-08T02:27:50.829Z,62.16
2022-11-08T02:30:18.744Z,62.10
2022-11-08T02:32:47.225Z,62.27
2022-11-08T02:35:16.494Z,61.95
2022-11-08T02:37:44.396Z,62.24
2022-11-08T02:40:12.731Z,62.16
2022-11-08T02:42:41.987Z,61.99
2022-11-08T02:45:10.547Z,62.19
2022-11-08T02:47:38.393Z,62.00
2022-11-08T02:50:07.309Z,61.90
2022-11-08T02:52:35.145Z,62.02
2022-11-08T02:55:03.116Z,62.19
2022-11-08T02:57:32.879Z,62.37
2022-11-08T03:00:02.171Z,62.18
2022-11-08T03:02:30.118Z,62.08
2022-11-08T03:04:58.067Z,62.30
2022-11-08T03:07:26.012Z,62.12
2022-11-08T03:09:54.187Z,62.14
2022-11-08T03:12:22.071Z,62.39
2022-11-08T03:14:49.955Z,61.90
2022-11-08T03:17:19.273Z,62.18
2022-11-08T03:19:47.307Z,61.99
2022-11-08T03:22:15.153Z,61.70
2022-11-08T03:24:43.080Z,62.12
2022-11-08T03:27:10.948Z,62.15
2022-11-08T03:29:38.809Z,62.41
2022-11-08T03:32:06.788Z,62.27
2022-11-08T03:34:36.536Z,62.05
2022-11-08T03:37:05.814Z,62.11
2022-11-08T03:39:33.693Z,62.36
2022-11-08T03:42:03.226Z,62.57
2022-11-08T03:44:31.104Z,62.45
2022-11-08T03:46:58.992Z,62.44
2022-11-08T03:49:26.835Z,62.74
2022-11-08T03:51:56.205Z,62.59
2022-11-08T03:54:24.051Z,62.63
2022-11-08T03:56:51.939Z,62.36
2022-11-08T03:59:19.804Z,62.50
2022-11-08T04:01:47.822Z,62.28
2022-11-08T04:04:15.787Z,62.55
2022-11-08T04:06:43.659Z,62.47
2022-11-08T04:09:15.529Z,62.28
2022-11-08T04:12:02.714Z,62.15
2022-11-08T04:14:48.220Z,61.96
2022-11-08T04:17:16.080Z,62.08
2022-11-08T04:20:01.426Z,61.99
2022-11-08T04:22:29.298Z,61.48
2022-11-08T04:24:58.564Z,61.38
2022-11-08T04:27:26.452Z,61.62
2022-11-08T04:29:54.310Z,61.59
2022-11-08T04:32:22.218Z,61.62
2022-11-08T04:34:50.072Z,61.51
2022-11-08T04:37:17.935Z,61.26
2022-11-08T04:39:45.792Z,61.14
2022-11-08T04:42:15.035Z,61.22
2022-11-08T04:44:42.920Z,61.30
2022-11-08T04:47:11.206Z,61.20
2022-11-08T04:49:39.670Z,61.17
2022-11-08T04:52:08.651Z,61.19
2022-11-08T04:54:36.509Z,60.93
2022-11-08T04:57:04.455Z,61.30
2022-11-08T04:59:33.680Z,60.78
2022-11-08T05:02:01.689Z,61.25
2022-11-08T05:04:29.694Z,61.28
2022-11-08T05:06:57.632Z,61.38
2022-11-08T05:09:25.479Z,61.17
2022-11-08T05:11:53.361Z,60.94
2022-11-08T05:14:21.303Z,61.36
2022-11-08T05:16:51.023Z,60.99
2022-11-08T05:19:39.160Z,61.25
2022-11-08T05:22:24.453Z,61.21
2022-11-08T05:24:52.338Z,61.44
2022-11-08T05:27:20.220Z,61.01
2022-11-08T05:29:48.117Z,61.33
2022-11-08T05:32:17.397Z,61.25
2022-11-08T05:34:45.260Z,61.17
2022-11-08T05:37:13.128Z,61.21
2022-11-08T05:39:41.028Z,61.57
2022-11-08T05:42:08.889Z,61.48
2022-11-08T05:44:36.744Z,61.42
2022-11-08T05:47:04.855Z,61.13
2022-11-08T05:49:34.295Z,60.97
2022-11-08T05:52:02.288Z,60.90
2022-11-08T05:54:30.204Z,60.70
2022-11-08T05:56:58.047Z,60.37
2022-11-08T05:59:25.961Z,60.37
2022-11-08T06:01:53.924Z,60.55
2022-11-08T06:04:21.860Z,60.18
2022-11-08T06:06:52.299Z,60.29
2022-11-08T06:09:20.253Z,59.96
2022-11-08T06:11:48.139Z,60.19
2022-11-08T06:14:16.035Z,59.76
2022-11-08T06:16:43.911Z,59.86
2022-11-08T06:19:11.788Z,59.89
2022-11-08T06:21:39.680Z,59.96
2022-11-08T06:24:09.675Z,59.52
2022-11-08T06:26:37.625Z,59.72
2022-11-08T06:29:05.554Z,59.67
2022-11-08T06:31:33.409Z,59.86
2022-11-08T06:34:01.271Z,60.14
2022-11-08T06:36:29.198Z,59.97
2022-11-08T06:38:57.147Z,59.73
2022-11-08T06:41:27.309Z,59.57
2022-11-08T06:43:55.928Z,60.01
2022-11-08T06:46:23.779Z,59.89
2022-11-08T06:48:51.899Z,59.70
2022-11-08T06:51:19.864Z,59.82
2022-11-08T06:53:47.743Z,59.86
2022-11-08T06:56:15.644Z,59.91
2022-11-08T06:58:44.889Z,59.77
2022-11-08T07:01:13.723Z,59.58
2022-11-08T07:03:41.700Z,59.96
2022-11-08T07:06:09.966Z,60.13
2022-11-08T07:08:37.957Z,59.93
2022-11-08T07:11:06.689Z,60.06
2022-11-08T07:13:34.575Z,59.64
2022-11-08T07:16:03.840Z,60.10
2022-11-08T07:18:31.845Z,60.12
2022-11-08T07:21:01.569Z,60.18
2022-11-08T07:23:30.192Z,60.09
2022-11-08T07:26:00.713Z,60.14
2022-11-08T07:28:29.181Z,60.28
2022-11-08T07:30:59.055Z,59.91
2022-11-08T07:33:28.367Z,60.23
2022-11-08T07:35:56.399Z,60.18
2022-11-08T07:38:26.059Z,60.12
2022-11-08T07:40:56.792Z,60.30
2022-11-08T07:43:24.969Z,60.28
2022-11-08T07:45:55.044Z,60.36
2022-11-08T07:48:23.002Z,59.92
2022-11-08T07:50:52.247Z,60.27
2022-11-08T07:53:20.472Z,60.05
2022-11-08T07:55:49.159Z,60.16
2022-11-08T07:58:17.152Z,60.24
2022-11-08T08:00:45.503Z,60.00
2022-11-08T08:03:14.355Z,59.75
2022-11-08T08:05:42.886Z,59.82
2022-11-08T08:08:12.719Z,59.46
2022-11-08T08:10:40.946Z,59.40
2022-11-08T08:13:08.888Z,59.27
2022-11-08T08:15:36.803Z,59.46
2022-11-08T08:18:05.655Z,59.21
2022-11-08T08:20:33.603Z,59.16
2022-11-08T08:23:01.558Z,58.91
2022-11-08T08:25:31.619Z,58.69
2022-11-08T08:28:00.907Z,58.27
2022-11-08T08:30:29.029Z,57.98
2022-11-08T08:33:26.963Z,58.29
2022-11-08T08:35:52.804Z,58.25
2022-11-08T08:38:20.700Z,58.04
2022-11-08T08:40:50.048Z,57.19
2022-11-08T08:43:18.238Z,57.47
2022-11-08T08:45:46.420Z,57.72
2022-11-08T08:48:14.293Z,56.85
2022-11-08T08:50:42.206Z,57.06
2022-11-08T08:53:10.989Z,57.08
2022-11-08T08:55:39.414Z,56.69
2022-11-08T08:58:08.680Z,56.37
2022-11-08T09:03:24.586Z,55.90
2022-11-08T09:05:52.605Z,56.00
2022-11-08T09:08:20.573Z,55.91
2022-11-08T09:10:48.534Z,55.26
2022-11-08T09:13:18.119Z,54.64
2022-11-08T09:15:46.232Z,54.54
2022-11-08T09:18:14.140Z,54.24
2022-11-08T09:20:43.887Z,54.10
2022-11-08T09:23:12.047Z,54.02
2022-11-08T09:25:39.974Z,53.65
2022-11-08T09:28:07.897Z,53.49
2022-11-08T09:30:37.284Z,53.51
2022-11-08T09:33:05.351Z,53.25
2022-11-08T09:35:33.544Z,53.29
2022-11-08T09:38:01.579Z,53.28
2022-11-08T09:40:32.384Z,53.30
2022-11-08T09:43:08.001Z,53.62
2022-11-08T09:45:37.966Z,53.74
2022-11-08T09:48:06.900Z,53.37
2022-11-08T09:50:38.578Z,53.75
2022-11-08T09:53:16.436Z,53.63
2022-11-08T09:55:46.074Z,53.62
2022-11-08T09:58:35.533Z,53.57
2022-11-08T10:01:05.068Z,53.13
2022-11-08T10:03:32.946Z,53.42
2022-11-08T10:06:14.967Z,53.44
2022-11-08T10:08:46.994Z,53.54
2022-11-08T10:11:21.125Z,53.47
2022-11-08T10:13:56.755Z,53.26
2022-11-08T10:16:30.384Z,53.78
2022-11-08T10:19:07.490Z,53.47
2022-11-08T10:21:56.724Z,53.03
2022-11-08T10:24:32.847Z,52.92
2022-11-08T10:27:00.748Z,53.20
2022-11-08T10:29:30.228Z,53.09
2022-11-08T10:32:01.313Z,53.96
2022-11-08T10:34:30.361Z,55.00
2022-11-08T10:37:01.607Z,55.40
2022-11-08T10:39:29.739Z,55.44
2022-11-08T10:42:00.055Z,55.23
2022-11-08T10:44:28.024Z,53.02
2022-11-08T10:47:00.971Z,51.60
2022-11-08T10:49:30.420Z,50.14
2022-11-08T10:51:59.463Z,49.02
2022-11-08T10:54:44.268Z,49.67
2022-11-08T10:57:13.197Z,49.47
2022-11-08T10:59:41.093Z,48.18
2022-11-08T11:02:29.169Z,48.61
2022-11-08T11:05:21.995Z,47.62
2022-11-08T11:08:02.939Z,47.93
2022-11-08T11:10:31.772Z,47.01
2022-11-08T11:13:02.664Z,46.20
2022-11-08T11:15:38.119Z,44.52
2022-11-08T11:18:18.732Z,45.72
2022-11-08T11:20:59.104Z,44.68
2022-11-08T11:23:34.099Z,43.88
2022-11-08T11:26:02.049Z,43.75
2022-11-08T11:28:29.951Z,43.39
2022-11-08T11:31:00.979Z,43.87
2022-11-08T11:33:31.055Z,44.14
2022-11-08T11:35:59.743Z,45.73
2022-11-08T11:38:34.037Z,46.91
2022-11-08T11:41:08.334Z,46.78
2022-11-08T11:43:42.647Z,45.63
2022-11-08T11:46:14.717Z,45.23
2022-11-08T11:48:47.035Z,44.13
2022-11-08T11:51:14.927Z,43.51
2022-11-08T11:53:48.459Z,42.69
2022-11-08T11:56:27.409Z,42.12
2022-11-08T11:59:08.497Z,42.01
2022-11-08T12:01:54.236Z,41.06
2022-11-08T12:04:33.624Z,41.06
2022-11-08T12:07:05.354Z,40.60
2022-11-08T12:09:42.683Z,40.81
2022-11-08T12:12:17.872Z,40.65
2022-11-08T12:14:51.330Z,40.43
2022-11-08T12:17:35.828Z,41.19
2022-11-08T12:20:20.408Z,42.05
2022-11-08T12:22:57.025Z,42.26
2022-11-08T12:25:26.036Z,43.35
2022-11-08T12:27:54.855Z,43.91
2022-11-08T12:30:25.663Z,44.31
2022-11-08T12:33:11.569Z,44.85
2022-11-08T12:35:44.360Z,45.24
2022-11-08T12:38:25.094Z,46.11
2022-11-08T12:40:55.730Z,46.83
2022-11-08T12:43:35.236Z,48.07
2022-11-08T12:46:10.335Z,48.63
2022-11-08T12:48:50.816Z,49.43
2022-11-08T12:51:22.573Z,49.93
2022-11-08T12:53:59.943Z,49.46
2022-11-08T12:56:29.835Z,52.14
2022-11-08T12:58:57.725Z,52.18
2022-11-08T13:01:25.699Z,51.48
2022-11-08T13:04:27.092Z,49.72
2022-11-08T13:06:58.975Z,47.25
2022-11-08T13:09:36.139Z,46.52
2022-11-08T13:12:08.349Z,45.72
2022-11-08T13:14:41.107Z,44.49
2022-11-08T13:17:18.093Z,42.75
2022-11-08T13:20:05.655Z,42.66
2022-11-08T13:22:47.731Z,42.07
2022-11-08T13:25:43.939Z,41.85
2022-11-08T13:28:40.531Z,41.19
2022-11-08T13:31:30.555Z,39.64
2022-11-08T13:34:12.246Z,40.07
2022-11-08T13:36:47.147Z,38.99
2022-11-08T13:39:33.845Z,38.98
2022-11-08T13:42:03.452Z,38.28
2022-11-08T13:44:57.799Z,38.34
2022-11-08T13:47:53.406Z,38.45
2022-11-08T13:50:45.861Z,37.88
2022-11-08T13:53:39.621Z,38.50
2022-11-08T13:56:26.487Z,37.75
2022-11-08T13:58:54.406Z,38.23
2022-11-08T14:01:57.117Z,38.56
2022-11-08T14:04:25.646Z,38.94
2022-11-08T14:06:58.198Z,39.21
2022-11-08T14:09:33.212Z,39.17
2022-11-08T14:12:03.973Z,38.86
2022-11-08T14:14:39.867Z,38.22
2022-11-08T14:17:40.746Z,37.67
2022-11-08T14:20:18.280Z,38.69
2022-11-08T14:22:50.212Z,40.18
2022-11-08T14:25:20.153Z,41.67
2022-11-08T14:27:49.534Z,41.27
2022-11-08T14:30:18.628Z,40.77
2022-11-08T14:32:46.533Z,40.40
2022-11-08T14:35:21.187Z,40.05
2022-11-08T14:37:49.116Z,39.89
2022-11-08T14:40:19.011Z,39.42
2022-11-08T14:42:46.882Z,38.53
2022-11-08T14:45:16.487Z,38.25
2022-11-08T14:47:44.486Z,38.91
2022-11-08T14:50:19.320Z,39.58
2022-11-08T14:52:47.257Z,40.42
2022-11-08T14:55:16.482Z,41.15
2022-11-08T14:57:44.916Z,41.61
2022-11-08T15:00:18.985Z,41.98
2022-11-08T15:02:48.278Z,42.36
2022-11-08T15:05:30.468Z,42.95
2022-11-08T15:07:58.709Z,43.03
2022-11-08T15:10:26.744Z,43.95
2022-11-08T15:12:54.700Z,44.31
2022-11-08T15:15:25.783Z,44.92
2022-11-08T15:18:12.444Z,46.80
2022-11-08T15:20:40.561Z,48.27
2022-11-08T15:23:43.417Z,48.80
2022-11-08T15:26:22.424Z,48.78
2022-11-08T15:29:06.919Z,49.26
2022-11-08T15:31:38.879Z,49.03
2022-11-08T15:34:06.824Z,49.04
2022-11-08T15:36:37.495Z,48.84
2022-11-08T15:39:11.816Z,49.07
2022-11-08T15:41:40.605Z,49.46
2022-11-08T15:44:26.098Z,49.38
2022-11-08T15:46:55.614Z,49.36
2022-11-08T15:49:26.122Z,49.57
2022-11-08T15:51:54.646Z,49.22
2022-11-08T15:54:23.258Z,49.76
2022-11-08T15:56:51.671Z,49.73
2022-11-08T15:59:22.147Z,49.49
2022-11-08T16:01:52.451Z,49.74
2022-11-08T16:04:21.751Z,50.18
2022-11-08T16:06:49.805Z,49.93
2022-11-08T16:09:17.791Z,50.45
2022-11-08T16:11:45.981Z,51.44
2022-11-08T16:14:16.246Z,52.20
2022-11-08T16:16:44.134Z,53.36
2022-11-08T16:19:18.556Z,54.22
2022-11-08T16:21:47.864Z,55.05
2022-11-08T16:24:15.749Z,55.51
2022-11-08T16:26:43.870Z,55.88
2022-11-08T16:29:17.889Z,56.35
2022-11-08T16:31:45.818Z,56.57
2022-11-08T16:34:13.696Z,56.93
2022-11-08T16:36:41.590Z,57.10
2022-11-08T16:39:14.773Z,56.86
2022-11-08T16:41:43.033Z,56.85
2022-11-08T16:44:11.325Z,56.95
2022-11-08T16:46:39.259Z,57.35
2022-11-08T16:49:07.529Z,57.14
2022-11-08T16:51:35.441Z,56.85
2022-11-08T16:54:03.898Z,57.26
2022-11-08T16:56:33.193Z,57.03
2022-11-08T16:59:01.047Z,57.57
2022-11-08T17:01:31.977Z,57.55
2022-11-08T17:03:59.914Z,57.28
2022-11-08T17:06:27.836Z,57.45
2022-11-08T17:08:55.859Z,57.52
2022-11-08T17:11:24.153Z,57.57
2022-11-08T17:13:53.714Z,57.88
2022-11-08T17:16:21.598Z,57.77
2022-11-08T17:18:53.064Z,57.95
2022-11-08T17:24:09.670Z,57.61
2022-11-08T17:26:37.755Z,57.65
2022-11-08T17:29:08.155Z,58.04
2022-11-08T17:31:36.055Z,57.58
2022-11-08T17:34:03.964Z,57.61
2022-11-08T17:36:31.824Z,57.88
2022-11-08T17:38:59.782Z,57.58
2022-11-08T17:41:27.842Z,57.58
2022-11-08T17:43:55.776Z,57.63
2022-11-08T17:46:25.037Z,58.15
2022-11-08T17:48:53.237Z,57.94
2022-11-08T17:51:21.251Z,57.96
2022-11-08T17:53:49.150Z,57.76
2022-11-08T17:56:17.453Z,58.09
2022-11-08T17:58:45.316Z,58.06
2022-11-08T18:01:13.351Z,58.49
2022-11-08T18:03:42.788Z,58.79
2022-11-08T18:06:12.424Z,59.17
2022-11-08T18:08:40.470Z,59.54
2022-11-08T18:11:08.406Z,59.78
2022-11-08T18:13:36.321Z,60.24
2022-11-08T18:16:08.192Z,60.77
2022-11-08T18:18:36.109Z,60.88
2022-11-08T18:21:05.442Z,61.39
2022-11-08T18:23:33.326Z,60.98
2022-11-08T18:26:01.513Z,61.30
2022-11-08T18:28:29.452Z,61.18
2022-11-08T18:30:57.391Z,61.34
2022-11-08T18:33:25.294Z,61.73
2022-11-08T18:35:53.149Z,62.00
2022-11-08T18:38:22.430Z,61.80
2022-11-08T18:40:50.364Z,62.26
2022-11-08T18:43:18.639Z,62.43
2022-11-08T18:45:46.792Z,62.11
2022-11-08T18:48:14.721Z,62.23
2022-11-08T18:50:42.698Z,61.98
2022-11-08T18:53:10.590Z,61.67
2022-11-08T18:55:39.871Z,61.85
2022-11-08T18:58:08.357Z,61.28
2022-11-08T19:00:36.223Z,61.32
2022-11-08T19:03:04.170Z,61.44
2022-11-08T19:05:32.072Z,61.30
2022-11-08T19:07:59.975Z,61.37
2022-11-08T19:10:27.891Z,60.82
2022-11-08T19:12:57.184Z,60.88
2022-11-08T19:15:27.218Z,60.98
2022-11-08T19:17:55.123Z,61.39
2022-11-08T19:20:24.046Z,61.31
2022-11-08T19:22:54.547Z,61.18
2022-11-08T19:25:22.427Z,61.26
2022-11-08T19:27:50.321Z,61.33
2022-11-08T19:30:19.987Z,61.45
2022-11-08T19:32:47.982Z,61.56
2022-11-08T19:35:19.006Z,61.51
2022-11-08T19:37:46.912Z,61.43
2022-11-08T19:40:15.539Z,61.54
2022-11-08T19:42:43.481Z,60.97
2022-11-08T19:45:11.883Z,60.96
2022-11-08T19:47:41.254Z,61.12
2022-11-08T19:50:09.505Z,61.23
2022-11-08T19:52:37.419Z,60.90
2022-11-08T19:55:07.109Z,60.72
2022-11-08T19:57:35.727Z,60.97
2022-11-08T20:00:04.699Z,60.79
2022-11-08T20:02:32.695Z,60.90
2022-11-08T20:05:01.981Z,60.63
2022-11-08T20:07:29.851Z,60.48
2022-11-08T20:09:57.871Z,60.36
2022-11-08T20:12:25.843Z,60.24
2022-11-08T20:14:53.880Z,60.42
2022-11-08T20:17:21.912Z,60.21
2022-11-08T20:19:51.862Z,60.11
2022-11-08T20:22:21.125Z,60.22
2022-11-08T20:24:49.076Z,60.05
2022-11-08T20:27:16.963Z,60.35
2022-11-08T20:29:47.869Z,59.95
2022-11-08T20:32:15.803Z,60.26
2022-11-08T20:34:43.751Z,60.11
2022-11-08T20:37:14.405Z,60.03
2022-11-08T20:39:44.082Z,60.03
2022-11-08T20:42:12.367Z,60.17
2022-11-08T20:44:40.244Z,60.04
2022-11-08T20:47:08.741Z,59.98
2022-11-08T20:49:36.764Z,60.28
2022-11-08T20:52:04.639Z,60.38
2022-11-08T20:54:32.540Z,60.64
2022-11-08T20:57:01.876Z,60.52
2022-11-08T20:59:29.935Z,60.50
2022-11-08T21:01:57.841Z,60.05
2022-11-08T21:04:25.941Z,60.36
2022-11-08T21:07:39.663Z,60.12
2022-11-08T21:09:49.727Z,60.28
2022-11-08T21:12:20.169Z,60.27
2022-11-08T21:14:48.547Z,59.96
2022-11-08T21:17:21.806Z,60.23
2022-11-08T21:19:51.809Z,59.90
2022-11-08T21:22:19.876Z,60.27
2022-11-08T21:24:48.980Z,60.03
2022-11-08T21:27:17.074Z,59.85
2022-11-08T21:29:46.309Z,59.78
2022-11-08T21:32:14.526Z,60.06
2022-11-08T21:34:45.958Z,60.08
2022-11-08T21:37:14.733Z,59.80
2022-11-08T21:39:42.744Z,60.02
2022-11-08T21:42:10.801Z,60.32
2022-11-08T21:44:38.914Z,60.48
2022-11-08T21:47:08.300Z,60.45
2022-11-08T21:49:36.332Z,60.18
2022-11-08T21:52:04.717Z,60.41
2022-11-08T21:54:32.624Z,60.39
2022-11-08T21:57:00.593Z,60.43
2022-11-08T21:59:28.558Z,60.16
2022-11-08T22:01:56.498Z,60.39
2022-11-08T22:04:33.659Z,60.12
2022-11-08T22:07:01.947Z,60.35
2022-11-08T22:09:30.489Z,60.28
2022-11-08T22:11:58.453Z,60.01
2022-11-08T22:14:26.362Z,60.00
2022-11-08T22:16:54.294Z,60.31
2022-11-08T22:19:22.232Z,60.47
2022-11-08T22:21:51.618Z,60.25
2022-11-08T22:24:20.433Z,60.34
2022-11-08T22:26:48.648Z,60.30
2022-11-08T22:29:17.150Z,60.20
2022-11-08T22:31:45.195Z,60.59
2022-11-08T22:34:13.083Z,60.67
2022-11-08T22:36:44.822Z,60.20
2022-11-08T22:39:15.043Z,60.54
2022-11-08T22:41:43.220Z,60.54
2022-11-08T22:44:12.265Z,60.63
2022-11-08T22:46:40.956Z,60.73
2022-11-08T22:49:08.922Z,60.75
2022-11-08T22:51:36.890Z,60.33
2022-11-08T22:54:05.120Z,60.56
2022-11-08T22:56:35.219Z,60.38
2022-11-08T22:59:03.385Z,60.30
2022-11-08T23:01:31.316Z,60.78
2022-11-08T23:03:59.208Z,60.74
2022-11-08T23:06:27.168Z,60.56
2022-11-08T23:08:55.254Z,60.39
2022-11-08T23:11:40.549Z,60.48
2022-11-08T23:14:32.442Z,60.71
2022-11-08T23:17:04.583Z,60.89
2022-11-08T23:19:49.825Z,60.76
2022-11-08T23:22:35.718Z,60.55
2022-11-08T23:25:03.631Z,60.59
2022-11-08T23:27:49.578Z,60.35
2022-11-08T23:30:36.651Z,60.68
2022-11-08T23:33:04.999Z,60.46
2022-11-08T23:35:32.901Z,60.70
2022-11-08T23:38:00.751Z,60.61
2022-11-08T23:40:46.284Z,60.57
2022-11-08T23:43:32.200Z,60.98
2022-11-08T23:46:07.485Z,61.04
2022-11-08T23:48:35.383Z,61.33
2022-11-08T23:51:03.234Z,61.01
2022-11-08T23:53:31.129Z,61.23
2022-11-08T23:55:59.230Z,61.43
2022-11-08T23:58:29.745Z,61.70
